createdAt,value
2022-08-22T00:00:09.852Z,15.90
2022-08-22T00:02:49.633Z,17.00
2022-08-22T00:02:54.058Z,17.80
2022-08-22T00:02:54.492Z,17.10
2022-08-22T00:02:57.677Z,16.50
2022-08-22T00:03:07.363Z,16.70
2022-08-22T00:06:07.709Z,15.80
2022-08-22T00:09:18.514Z,15.80
2022-08-22T00:12:04.222Z,15.80
2022-08-22T00:14:38.018Z,15.80
2022-08-22T00:17:39.217Z,15.80
2022-08-22T00:20:29.067Z,15.80
2022-08-22T00:23:19.212Z,15.80
2022-08-22T00:26:02.140Z,15.80
2022-08-22T00:28:35.128Z,15.80
2022-08-22T00:31:25.914Z,15.80
2022-08-22T00:34:02.716Z,15.80
2022-08-22T00:36:33.849Z,15.80
2022-08-22T00:39:09.717Z,15.90
2022-08-22T00:42:01.142Z,15.80
2022-08-22T00:44:46.551Z,15.80
2022-08-22T00:47:25.748Z,15.70
2022-08-22T00:50:07.860Z,15.70
2022-08-22T00:53:19.261Z,15.70
2022-08-22T00:55:58.101Z,15.60
2022-08-22T00:58:33.405Z,15.60
2022-08-22T01:01:06.841Z,15.60
2022-08-22T01:03:39.718Z,15.60
2022-08-22T01:06:19.180Z,15.70
2022-08-22T01:09:18.182Z,15.70
2022-08-22T01:12:06.413Z,15.70
2022-08-22T01:14:36.504Z,15.60
2022-08-22T01:17:16.093Z,15.60
2022-08-22T01:20:01.349Z,15.50
2022-08-22T01:22:46.385Z,15.50
2022-08-22T01:25:38.069Z,15.50
2022-08-22T01:28:27.913Z,15.50
2022-08-22T01:31:33.275Z,15.40
2022-08-22T01:34:19.998Z,15.40
2022-08-22T01:37:24.112Z,15.30
2022-08-22T01:40:22.522Z,15.30
2022-08-22T01:43:09.639Z,15.30
2022-08-22T01:46:02.641Z,15.30
2022-08-22T01:48:45.978Z,15.30
2022-08-22T01:51:20.378Z,15.30
2022-08-22T01:54:11.736Z,15.30
2022-08-22T01:56:45.594Z,15.30
2022-08-22T01:59:17.606Z,15.30
2022-08-22T02:01:50.577Z,15.30
2022-08-22T02:04:44.316Z,15.30
2022-08-22T02:07:41.694Z,15.20
2022-08-22T02:10:26.756Z,15.20
2022-08-22T02:13:17.809Z,15.20
2022-08-22T02:15:50.610Z,15.20
2022-08-22T02:18:26.694Z,15.20
2022-08-22T02:21:06.347Z,15.20
2022-08-22T02:23:55.965Z,15.20
2022-08-22T02:26:50.020Z,15.20
2022-08-22T02:29:38.322Z,15.20
2022-08-22T02:32:22.559Z,15.10
2022-08-22T02:34:59.617Z,15.20
2022-08-22T02:37:42.999Z,15.20
2022-08-22T02:40:11.671Z,15.20
2022-08-22T02:42:43.352Z,15.20
2022-08-22T02:45:44.820Z,15.20
2022-08-22T02:48:32.547Z,15.20
2022-08-22T02:51:06.438Z,15.10
2022-08-22T02:53:48.651Z,15.00
2022-08-22T02:56:38.230Z,14.90
2022-08-22T02:59:24.006Z,14.90
2022-08-22T03:01:51.181Z,14.80
2022-08-22T03:04:26.224Z,14.80
2022-08-22T03:07:05.030Z,14.90
2022-08-22T03:09:47.482Z,14.90
2022-08-22T03:12:32.195Z,14.90
2022-08-22T03:15:04.411Z,14.90
2022-08-22T03:17:38.981Z,14.90
2022-08-22T03:20:14.959Z,14.90
2022-08-22T03:22:46.942Z,14.90
2022-08-22T03:25:46.215Z,14.90
2022-08-22T03:28:20.810Z,14.90
2022-08-22T03:31:11.764Z,14.90
2022-08-22T03:33:38.501Z,14.90
2022-08-22T03:36:14.147Z,14.90
2022-08-22T03:39:11.568Z,14.90
2022-08-22T03:42:08.818Z,14.80
2022-08-22T03:44:43.692Z,14.80
2022-08-22T03:47:16.214Z,14.80
2022-08-22T03:49:58.917Z,14.80
2022-08-22T03:53:18.845Z,14.80
2022-08-22T03:56:23.541Z,14.80
2022-08-22T03:59:16.923Z,14.80
2022-08-22T04:02:24.704Z,14.80
2022-08-22T04:05:09.091Z,14.80
2022-08-22T04:08:01.707Z,14.80
2022-08-22T04:10:53.783Z,14.70
2022-08-22T04:13:58.293Z,14.70
2022-08-22T04:16:46.644Z,14.70
2022-08-22T04:19:58.020Z,14.60
2022-08-22T04:22:49.762Z,14.60
2022-08-22T04:25:25.611Z,14.60
2022-08-22T04:28:15.627Z,14.60
2022-08-22T04:31:05.995Z,14.70
2022-08-22T04:33:40.112Z,14.70
2022-08-22T04:36:18.039Z,14.70
2022-08-22T04:38:57.828Z,14.60
2022-08-22T04:41:25.497Z,14.70
2022-08-22T04:43:54.046Z,14.70
2022-08-22T04:46:26.316Z,14.70
2022-08-22T04:49:15.108Z,14.70
2022-08-22T04:51:55.775Z,14.70
2022-08-22T04:54:56.787Z,14.70
2022-08-22T04:57:29.431Z,14.80
2022-08-22T05:00:06.523Z,14.80
2022-08-22T05:02:33.210Z,14.80
2022-08-22T05:05:14.375Z,14.90
2022-08-22T05:07:54.813Z,14.90
2022-08-22T05:10:25.884Z,15.00
2022-08-22T05:13:00.539Z,15.10
2022-08-22T05:15:34.727Z,15.10
2022-08-22T05:18:07.289Z,15.20
2022-08-22T05:20:34.002Z,15.30
2022-08-22T05:23:05.783Z,15.40
2022-08-22T05:25:34.043Z,15.40
2022-08-22T05:28:17.743Z,15.60
2022-08-22T05:30:46.754Z,15.70
2022-08-22T05:33:30.009Z,15.90
2022-08-22T05:36:06.317Z,16.10
2022-08-22T05:38:35.142Z,16.30
2022-08-22T05:41:05.668Z,16.50
2022-08-22T05:43:35.078Z,16.60
2022-08-22T05:46:01.771Z,16.80
2022-08-22T05:48:42.023Z,17.00
2022-08-22T05:51:24.848Z,17.20
2022-08-22T05:53:57.219Z,17.40
2022-08-22T05:56:35.418Z,17.50
2022-08-22T05:59:08.198Z,17.50
2022-08-22T06:01:48.911Z,17.60
2022-08-22T06:04:38.993Z,17.70
2022-08-22T06:07:20.987Z,17.90
2022-08-22T06:09:47.659Z,18.00
2022-08-22T06:12:22.596Z,18.10
2022-08-22T06:15:11.902Z,18.20
2022-08-22T06:17:47.966Z,18.10
2022-08-22T06:20:19.007Z,18.00
2022-08-22T06:22:51.571Z,18.00
2022-08-22T06:25:24.671Z,18.10
2022-08-22T06:27:52.214Z,18.30
2022-08-22T06:30:19.156Z,18.70
2022-08-22T06:32:59.196Z,19.30
2022-08-22T06:36:09.811Z,19.90
2022-08-22T06:39:06.453Z,20.80
2022-08-22T06:41:35.555Z,21.50
2022-08-22T06:44:02.733Z,22.00
2022-08-22T06:46:29.550Z,22.50
2022-08-22T06:48:57.553Z,22.80
2022-08-22T06:51:26.948Z,23.00
2022-08-22T06:53:56.704Z,23.20
2022-08-22T06:56:44.142Z,23.20
2022-08-22T06:59:17.182Z,23.40
2022-08-22T07:01:51.885Z,23.40
2022-08-22T07:04:18.648Z,23.50
2022-08-22T07:06:49.190Z,23.70
2022-08-22T07:09:37.056Z,24.00
2022-08-22T07:12:10.993Z,24.20
2022-08-22T07:14:43.256Z,24.50
2022-08-22T07:17:17.168Z,24.80
2022-08-22T07:20:10.381Z,24.90
2022-08-22T07:22:37.494Z,25.00
2022-08-22T07:25:11.036Z,25.20
2022-08-22T07:27:48.789Z,25.20
2022-08-22T07:30:28.027Z,25.20
2022-08-22T07:33:21.049Z,25.20
2022-08-22T07:35:59.095Z,25.40
2022-08-22T07:38:43.897Z,25.40
2022-08-22T07:41:26.093Z,25.70
2022-08-22T07:44:00.223Z,25.80
2022-08-22T07:46:38.522Z,25.90
2022-08-22T07:49:22.256Z,26.00
2022-08-22T07:51:54.044Z,26.30
2022-08-22T07:54:37.595Z,26.40
2022-08-22T07:57:26.506Z,26.40
2022-08-22T07:59:54.913Z,26.40
2022-08-22T08:02:21.741Z,26.20
2022-08-22T08:04:49.780Z,26.00
2022-08-22T08:07:17.138Z,25.90
2022-08-22T08:09:46.703Z,25.70
2022-08-22T08:12:13.399Z,25.80
2022-08-22T08:14:41.904Z,25.80
2022-08-22T08:17:23.824Z,25.90
2022-08-22T08:19:50.887Z,25.90
2022-08-22T08:22:24.618Z,25.80
2022-08-22T08:24:51.622Z,25.50
2022-08-22T08:27:39.642Z,25.40
2022-08-22T08:30:15.680Z,25.40
2022-08-22T08:32:43.020Z,25.70
2022-08-22T08:35:32.009Z,26.00
2022-08-22T08:38:18.370Z,26.40
2022-08-22T08:41:22.729Z,26.60
2022-08-22T08:44:17.023Z,27.00
2022-08-22T08:47:23.262Z,27.60
2022-08-22T08:50:16.652Z,28.10
2022-08-22T08:53:25.780Z,28.20
2022-08-22T08:56:27.765Z,28.50
2022-08-22T08:59:20.595Z,28.70
2022-08-22T09:02:13.758Z,28.90
2022-08-22T09:05:08.722Z,29.10
2022-08-22T09:07:39.681Z,29.20
2022-08-22T09:10:19.024Z,29.20
2022-08-22T09:13:23.496Z,29.30
2022-08-22T09:16:05.262Z,29.70
2022-08-22T09:18:41.954Z,30.00
2022-08-22T09:21:30.657Z,30.00
2022-08-22T09:24:21.517Z,30.10
2022-08-22T09:27:03.774Z,29.70
2022-08-22T09:30:11.547Z,29.10
2022-08-22T09:32:44.553Z,28.80
2022-08-22T09:35:32.632Z,28.40
2022-08-22T09:38:04.470Z,28.50
2022-08-22T09:40:52.565Z,28.60
2022-08-22T09:43:22.884Z,28.70
2022-08-22T09:46:14.368Z,29.00
2022-08-22T09:49:10.726Z,29.00
2022-08-22T09:51:48.905Z,29.10
2022-08-22T09:54:31.458Z,29.30
2022-08-22T09:57:14.817Z,29.40
2022-08-22T10:00:13.452Z,29.40
2022-08-22T10:02:46.550Z,29.50
2022-08-22T10:05:40.477Z,29.50
2022-08-22T10:08:20.271Z,29.40
2022-08-22T10:11:11.733Z,28.60
2022-08-22T10:13:47.038Z,28.00
2022-08-22T10:16:48.563Z,27.50
2022-08-22T10:19:18.056Z,27.10
2022-08-22T10:22:09.016Z,26.80
2022-08-22T10:24:50.701Z,26.80
2022-08-22T10:27:29.314Z,26.80
2022-08-22T10:30:02.377Z,26.70
2022-08-22T10:32:54.139Z,26.70
2022-08-22T10:35:33.830Z,26.80
2022-08-22T10:38:10.759Z,26.80
2022-08-22T10:40:59.029Z,26.90
2022-08-22T10:43:33.035Z,27.20
2022-08-22T10:46:19.039Z,27.70
2022-08-22T10:48:48.317Z,27.80
2022-08-22T10:51:32.309Z,27.70
2022-08-22T10:54:42.200Z,27.70
2022-08-22T10:57:20.827Z,27.90
2022-08-22T11:00:10.139Z,27.70
2022-08-22T11:02:46.780Z,27.30
2022-08-22T11:05:22.957Z,26.90
2022-08-22T11:08:11.521Z,26.70
2022-08-22T11:11:03.126Z,26.60
2022-08-22T11:13:38.314Z,26.70
2022-08-22T11:16:24.017Z,26.90
2022-08-22T11:18:58.036Z,27.10
2022-08-22T11:21:59.488Z,27.20
2022-08-22T11:24:34.753Z,27.40
2022-08-22T11:27:13.037Z,27.60
2022-08-22T11:29:58.751Z,27.60
2022-08-22T11:33:06.219Z,27.80
2022-08-22T11:36:04.650Z,27.70
2022-08-22T11:38:37.577Z,27.80
2022-08-22T11:41:12.618Z,27.80
2022-08-22T11:44:03.511Z,27.90
2022-08-22T11:46:42.834Z,28.10
2022-08-22T11:49:38.131Z,28.30
2022-08-22T11:52:13.163Z,28.60
2022-08-22T11:54:43.311Z,28.90
2022-08-22T11:57:36.263Z,29.10
2022-08-22T12:00:53.707Z,29.30
2022-08-22T12:03:44.927Z,29.40
2022-08-22T12:06:14.360Z,29.50
2022-08-22T12:09:02.434Z,29.50
2022-08-22T12:11:44.173Z,29.60
2022-08-22T12:14:31.949Z,29.70
2022-08-22T12:17:22.798Z,29.70
2022-08-22T12:20:16.790Z,29.60
2022-08-22T12:22:58.164Z,29.40
2022-08-22T12:25:50.806Z,29.20
2022-08-22T12:28:29.493Z,29.30
2022-08-22T12:31:19.758Z,29.30
2022-08-22T12:33:54.537Z,29.20
2022-08-22T12:36:49.547Z,28.90
2022-08-22T12:39:26.667Z,28.80
2022-08-22T12:42:12.038Z,28.90
2022-08-22T12:45:05.882Z,28.90
2022-08-22T12:47:55.556Z,28.70
2022-08-22T12:50:41.771Z,28.50
2022-08-22T12:53:20.655Z,28.30
2022-08-22T12:56:04.794Z,28.10
2022-08-22T12:58:51.256Z,27.90
2022-08-22T13:01:18.191Z,27.90
2022-08-22T13:03:49.143Z,27.80
2022-08-22T13:06:37.007Z,27.70
2022-08-22T13:09:12.651Z,27.60
2022-08-22T13:11:40.750Z,27.70
2022-08-22T13:14:08.357Z,27.90
2022-08-22T13:16:51.051Z,28.30
2022-08-22T13:19:29.484Z,28.50
2022-08-22T13:22:08.607Z,28.80
2022-08-22T13:24:51.882Z,29.20
2022-08-22T13:27:25.560Z,29.50
2022-08-22T13:30:02.021Z,29.50
2022-08-22T13:32:32.607Z,29.40
2022-08-22T13:35:00.114Z,29.50
2022-08-22T13:37:34.622Z,29.60
2022-08-22T13:40:04.451Z,29.80
2022-08-22T13:42:32.583Z,30.20
2022-08-22T13:45:02.500Z,30.70
2022-08-22T13:47:31.802Z,30.90
2022-08-22T13:50:16.949Z,30.70
2022-08-22T13:52:52.413Z,30.30
2022-08-22T13:55:51.361Z,29.80
2022-08-22T13:58:38.259Z,29.10
2022-08-22T14:01:08.096Z,28.40
2022-08-22T14:03:55.383Z,28.00
2022-08-22T14:06:35.470Z,27.70
2022-08-22T14:09:17.595Z,27.60
2022-08-22T14:12:13.574Z,27.30
2022-08-22T14:14:42.923Z,27.10
2022-08-22T14:17:24.056Z,27.00
2022-08-22T14:19:58.774Z,26.90
2022-08-22T14:22:32.525Z,26.90
2022-08-22T14:25:08.552Z,26.80
2022-08-22T14:27:43.890Z,26.70
2022-08-22T14:30:18.622Z,26.60
2022-08-22T14:32:52.817Z,26.40
2022-08-22T14:35:29.196Z,26.30
2022-08-22T14:38:30.305Z,26.30
2022-08-22T14:41:13.827Z,26.20
2022-08-22T14:43:54.803Z,26.20
2022-08-22T14:46:27.473Z,26.20
2022-08-22T14:49:08.886Z,26.10
2022-08-22T14:51:38.720Z,26.10
2022-08-22T14:54:21.406Z,25.90
2022-08-22T14:56:49.299Z,25.80
2022-08-22T14:59:37.838Z,25.80
2022-08-22T15:02:13.296Z,25.90
2022-08-22T15:04:45.571Z,26.00
2022-08-22T15:07:24.264Z,26.10
2022-08-22T15:09:56.615Z,26.10
2022-08-22T15:12:27.927Z,26.20
2022-08-22T15:15:00.285Z,26.20
2022-08-22T15:17:44.004Z,26.20
2022-08-22T15:20:31.300Z,26.00
2022-08-22T15:23:10.230Z,25.90
2022-08-22T15:25:41.117Z,25.80
2022-08-22T15:28:14.186Z,25.80
2022-08-22T15:30:47.073Z,25.70
2022-08-22T15:33:39.100Z,25.60
2022-08-22T15:36:24.500Z,25.60
2022-08-22T15:38:56.121Z,25.60
2022-08-22T15:41:36.481Z,25.50
2022-08-22T15:44:06.274Z,25.40
2022-08-22T15:46:44.474Z,25.30
2022-08-22T15:49:21.990Z,25.20
2022-08-22T15:52:00.633Z,25.00
2022-08-22T15:54:53.246Z,25.00
2022-08-22T15:57:29.666Z,24.90
2022-08-22T15:59:57.282Z,24.80
2022-08-22T16:02:44.766Z,24.80
2022-08-22T16:05:11.873Z,24.70
2022-08-22T16:08:02.989Z,24.60
2022-08-22T16:10:38.469Z,24.50
2022-08-22T16:13:27.088Z,24.50
2022-08-22T16:16:12.451Z,24.40
2022-08-22T16:18:45.013Z,24.40
2022-08-22T16:21:13.245Z,24.40
2022-08-22T16:23:49.652Z,24.30
2022-08-22T16:26:32.020Z,24.20
2022-08-22T16:29:14.797Z,24.20
2022-08-22T16:31:44.626Z,24.10
2022-08-22T16:34:17.645Z,24.10
2022-08-22T16:37:03.186Z,24.00
2022-08-22T16:39:52.402Z,23.80
2022-08-22T16:42:21.775Z,23.70
2022-08-22T16:45:05.521Z,23.60
2022-08-22T16:47:56.729Z,23.50
2022-08-22T16:50:32.585Z,23.40
2022-08-22T16:53:06.819Z,23.40
2022-08-22T16:55:35.937Z,23.30
2022-08-22T16:58:11.793Z,23.40
2022-08-22T17:00:58.053Z,23.30
2022-08-22T17:03:49.645Z,23.20
2022-08-22T17:06:41.908Z,23.20
2022-08-22T17:09:42.048Z,23.10
2022-08-22T17:12:17.254Z,23.00
2022-08-22T17:15:15.879Z,23.00
2022-08-22T17:18:18.319Z,22.90
2022-08-22T17:21:11.430Z,22.90
2022-08-22T17:23:51.481Z,22.90
2022-08-22T17:26:21.094Z,22.90
2022-08-22T17:29:23.085Z,22.80
2022-08-22T17:32:11.915Z,22.80
2022-08-22T17:35:04.568Z,22.70
2022-08-22T17:38:16.474Z,22.60
2022-08-22T17:40:55.250Z,22.60
2022-08-22T17:43:48.709Z,22.40
2022-08-22T17:46:36.421Z,22.40
2022-08-22T17:49:13.935Z,22.30
2022-08-22T17:52:08.213Z,22.20
2022-08-22T17:54:42.302Z,22.10
2022-08-22T17:57:22.969Z,22.00
2022-08-22T17:59:59.762Z,22.00
2022-08-22T18:02:29.175Z,21.80
2022-08-22T18:05:08.091Z,21.80
2022-08-22T18:07:45.745Z,21.70
2022-08-22T18:10:31.573Z,21.60
2022-08-22T18:13:13.571Z,21.50
2022-08-22T18:15:45.638Z,21.40
2022-08-22T18:18:31.220Z,21.30
2022-08-22T18:21:29.397Z,21.20
2022-08-22T18:24:13.347Z,21.10
2022-08-22T18:26:53.033Z,21.00
2022-08-22T18:29:40.929Z,20.90
2022-08-22T18:32:12.484Z,20.80
2022-08-22T18:35:02.838Z,20.80
2022-08-22T18:37:35.668Z,20.70
2022-08-22T18:40:29.068Z,20.60
2022-08-22T18:43:03.479Z,20.60
2022-08-22T18:45:48.552Z,20.50
2022-08-22T18:48:30.145Z,20.50
2022-08-22T18:51:24.784Z,20.50
2022-08-22T18:54:00.194Z,20.50
2022-08-22T18:56:35.827Z,20.50
2022-08-22T18:59:24.891Z,20.40
2022-08-22T19:02:02.629Z,20.40
2022-08-22T19:04:51.035Z,20.40
2022-08-22T19:07:23.588Z,20.30
2022-08-22T19:09:58.107Z,20.20
2022-08-22T19:12:31.235Z,20.20
2022-08-22T19:14:58.005Z,20.10
2022-08-22T19:17:36.560Z,20.10
2022-08-22T19:20:48.053Z,19.90
2022-08-22T19:23:32.890Z,19.80
2022-08-22T19:26:32.260Z,19.70
2022-08-22T19:29:03.778Z,19.70
2022-08-22T19:31:42.891Z,19.60
2022-08-22T19:34:25.956Z,19.50
2022-08-22T19:37:30.565Z,19.50
2022-08-22T19:40:00.135Z,19.40
2022-08-22T19:42:27.348Z,19.40
2022-08-22T19:45:28.748Z,19.30
2022-08-22T19:48:10.541Z,19.30
2022-08-22T19:50:40.046Z,19.20
2022-08-22T19:53:27.166Z,19.10
2022-08-22T19:56:05.290Z,19.10
2022-08-22T19:59:08.689Z,19.10
2022-08-22T20:01:57.123Z,19.00
2022-08-22T20:04:48.926Z,19.00
2022-08-22T20:07:18.490Z,19.00
2022-08-22T20:10:09.871Z,18.90
2022-08-22T20:13:02.171Z,18.90
2022-08-22T20:15:29.795Z,18.90
2022-08-22T20:18:12.267Z,18.90
2022-08-22T20:20:55.458Z,18.90
2022-08-22T20:23:26.769Z,18.90
2022-08-22T20:25:55.863Z,18.90
2022-08-22T20:28:46.183Z,18.90
2022-08-22T20:31:23.314Z,18.80
2022-08-22T20:33:53.683Z,18.80
2022-08-22T20:36:28.808Z,18.80
2022-08-22T20:39:09.045Z,18.80
2022-08-22T20:41:37.387Z,18.80
2022-08-22T20:44:25.929Z,18.70
2022-08-22T20:47:04.318Z,18.70
2022-08-22T20:49:31.441Z,18.60
2022-08-22T20:52:00.118Z,18.60
2022-08-22T20:54:29.218Z,18.60
2022-08-22T20:56:57.284Z,18.50
2022-08-22T20:59:36.483Z,18.50
2022-08-22T21:02:18.330Z,18.40
2022-08-22T21:05:04.326Z,18.40
2022-08-22T21:07:42.522Z,18.30
2022-08-22T21:10:43.344Z,18.20
2022-08-22T21:13:37.731Z,18.20
2022-08-22T21:16:14.162Z,18.20
2022-08-22T21:18:42.663Z,18.10
2022-08-22T21:21:29.764Z,18.10
2022-08-22T21:24:02.618Z,18.00
2022-08-22T21:26:37.637Z,17.90
2022-08-22T21:29:13.653Z,17.90
2022-08-22T21:31:50.630Z,17.90
2022-08-22T21:34:19.014Z,17.80
2022-08-22T21:36:45.765Z,17.80
2022-08-22T21:39:27.597Z,17.80
2022-08-22T21:42:00.374Z,17.70
2022-08-22T21:44:37.647Z,17.70
2022-08-22T21:47:35.473Z,17.70
2022-08-22T21:50:08.164Z,17.70
2022-08-22T21:52:37.265Z,17.60
2022-08-22T21:55:31.773Z,17.70
2022-08-22T21:58:34.179Z,17.70
2022-08-22T22:01:25.066Z,17.70
2022-08-22T22:03:54.008Z,17.70
2022-08-22T22:06:20.779Z,17.70
2022-08-22T22:08:48.891Z,17.70
2022-08-22T22:11:15.732Z,17.60
2022-08-22T22:13:42.563Z,17.60
2022-08-22T22:16:09.512Z,17.60
2022-08-22T22:18:36.204Z,17.60
2022-08-22T22:21:02.931Z,17.60
2022-08-22T22:23:29.633Z,17.50
2022-08-22T22:25:57.350Z,17.50
2022-08-22T22:28:34.615Z,17.50
2022-08-22T22:31:01.450Z,17.40
2022-08-22T22:33:30.367Z,17.30
2022-08-22T22:35:59.226Z,17.30
2022-08-22T22:38:25.934Z,17.20
2022-08-22T22:40:52.852Z,17.20
2022-08-22T22:43:19.561Z,17.20
2022-08-22T22:45:46.287Z,17.10
2022-08-22T22:48:17.384Z,17.10
2022-08-22T22:50:51.468Z,17.10
2022-08-22T22:53:19.841Z,17.10
2022-08-22T22:56:00.121Z,17.10
2022-08-22T22:58:27.846Z,17.10
2022-08-22T23:00:54.627Z,17.10
2022-08-22T23:03:21.410Z,17.10
2022-08-22T23:05:48.128Z,17.10
2022-08-22T23:08:14.822Z,17.10
2022-08-22T23:10:41.531Z,17.10
2022-08-22T23:13:08.309Z,17.00
2022-08-22T23:15:35.043Z,16.90
2022-08-22T23:18:02.358Z,16.90
2022-08-22T23:20:29.070Z,16.90
2022-08-22T23:22:55.750Z,16.90
2022-08-22T23:25:22.505Z,16.80
2022-08-22T23:27:52.386Z,16.80
2022-08-22T23:30:19.714Z,16.80
2022-08-22T23:32:46.404Z,16.80
2022-08-22T23:35:13.467Z,16.70
2022-08-22T23:37:40.182Z,16.70
2022-08-22T23:40:08.673Z,16.70
2022-08-22T23:42:35.389Z,16.60
2022-08-22T23:45:02.097Z,16.60
2022-08-22T23:47:28.797Z,16.50
2022-08-22T23:49:55.561Z,16.50
2022-08-22T23:52:22.286Z,16.50
2022-08-22T23:54:54.551Z,16.50
2022-08-22T23:57:26.264Z,16.50
2022-08-22T23:59:57.669Z,16.40
